Aviation Digital Data Service (ADDS)

Output produced by METARs form (1949 UTC 29 July 2016)
found at http://aviationweather.gov/adds/metars/
 
KGMU 291724Z 2918/3018 26004KT P6SM SCT040 
     FM291900 25009KT P6SM VCTS BKN060CB 
     FM301000 25004KT P6SM SCT070 
     FM301200 27004KT P6SM BKN250